Terminal Aerodrome Forecast
Issued by NWS

Home | Current Version | Previous Version | Text Only | Print | Product List | Glossary On
Versions: 1 2 3 4 5 6 7 8 9 10 11 12 13 14 15 16 17 18 19 20 21 22 23 24 25
000
FTUS43 KMKX 311250 AAB
TAFENW
TAF AMD
KENW 311250Z 3113/0112 33012G20KT P6SM BKN035
     FM311400 35023G37KT P6SM BKN035
     FM312000 36025G38KT P6SM SCT035
     FM010100 35016G26KT P6SM SCT040
     FM010800 35012KT P6SM SCT040=

USA.gov is the U.S. government's official web portal to all federal, state and local government web resources and services.